Bullard, TX (75757)

1:25 PM CST on December 09, 2016 (GMT -0600)
Kiepersol Wine Farm | | Change Station

Elev 502 ft 32.16 °N, 95.30 °W | Updated 0 second ago

Mostly Cloudy
Mostly Cloudy
40.0 °F
Feels Like 40 °F
N
3.0
Wind Variable Wind from ESE
Gusts 3.0 mph

Today
High -- | Low -- °F
--% Chance of Precip.
Yesterday
High -- | Low -- °F
Precip. -- in
Pressure 30.58 in
Visibility 10.0 miles
Clouds Overcast 6500 ft
Windchill 40 °F
Dew Point 21 °F
Humidity 47%
Rainfall 0.00 in
Snow Depth Not available.
7:10 AM 5:16 PM
Waxing Gibbous, 76% visible
METAR KTYR 091853Z 04005KT 10SM OVC065 05/M07 A3057 RMK AO2 SLP354 T00501072
Pressure 30.58 in
Visibility 10.0 miles
Clouds Overcast 6500 ft
Windchill 40 °F
Dew Point 21 °F
Humidity 47%
Rainfall 0.00 in
Snow Depth Not available.
7:10 AM 5:16 PM
Waxing Gibbous, 76% visible
METAR KTYR 091853Z 04005KT 10SM OVC065 05/M07 A3057 RMK AO2 SLP354 T00501072

10-Day Weather Forecast

Almanac

Astronomy

Dec. 09, 2016 Rise Set
Actual Time
Civil Twilight
Nautical Twilight
Astronomical Twilight
Moon
Length of Visible Light
Length of Day
Tomorrow will be .
, % of the Moon is Illuminated

Today's Extremes

State Highs State Lows

Community

WunderPhotos

Upload Photos

1,956,499 photos uploaded!

WunderBlog® & News

Nearby

Air Quality

  Air Quality AQ Index Pollutant
Not available.

Snow Depth

Station Depth Elevation

Earthquake Activity

City Distance Mag. Time & Date
Minimum magnitude displayed is 2.5.

Coastal Water Temperatures

Place Temperature

Stations

Nearby Weather Stations

Station Location Temp. Windchill Dew Point Humidity Wind Precip. Elev Updated Type
                   

Watches & Warnings

There are currently no watches in effect.